createdAt,value
2023-04-30T00:00:29.424Z,8.50
2023-04-30T00:02:57.025Z,9.07
2023-04-30T00:05:24.402Z,9.65
2023-04-30T00:07:51.595Z,10.38
2023-04-30T00:10:18.806Z,13.15
2023-04-30T00:12:45.936Z,11.98
2023-04-30T00:15:13.292Z,13.48
2023-04-30T00:17:40.532Z,16.25
2023-04-30T00:20:08.321Z,10.82
2023-04-30T00:22:35.538Z,11.00
2023-04-30T00:25:02.939Z,13.20
2023-04-30T00:27:31.529Z,15.38
2023-04-30T00:29:59.122Z,14.05
2023-04-30T00:32:26.446Z,12.73
2023-04-30T00:34:53.721Z,13.40
2023-04-30T00:37:20.899Z,12.15
2023-04-30T00:39:48.095Z,10.55
2023-04-30T00:42:15.303Z,10.50
2023-04-30T00:44:42.525Z,9.32
2023-04-30T00:47:10.780Z,8.75
2023-04-30T00:49:38.108Z,10.07
2023-04-30T00:52:05.695Z,9.55
2023-04-30T00:54:33.164Z,9.65
2023-04-30T00:57:01.953Z,11.95
2023-04-30T00:59:33.108Z,11.43
2023-04-30T01:04:27.534Z,12.00
2023-04-30T01:06:55.426Z,11.57
2023-04-30T01:09:22.873Z,11.52
2023-04-30T01:11:50.528Z,11.68
2023-04-30T01:14:37.974Z,11.77
2023-04-30T01:17:23.928Z,11.15
2023-04-30T01:19:51.259Z,11.65
2023-04-30T01:22:38.815Z,10.88
2023-04-30T01:25:22.259Z,9.90
2023-04-30T01:27:59.455Z,10.25
2023-04-30T01:30:27.624Z,9.32
2023-04-30T01:32:55.028Z,9.63
2023-04-30T01:35:24.722Z,9.88
2023-04-30T01:38:00.047Z,9.55
2023-04-30T01:40:34.960Z,9.57
2023-04-30T01:43:09.779Z,8.52
2023-04-30T01:45:58.311Z,9.90
2023-04-30T01:48:44.497Z,9.98
2023-04-30T01:51:12.028Z,8.73
2023-04-30T01:53:44.863Z,8.38
2023-04-30T01:56:13.767Z,8.85
2023-04-30T01:58:41.181Z,8.57
2023-04-30T02:01:08.692Z,8.75
2023-04-30T02:03:36.129Z,7.72
2023-04-30T02:06:03.489Z,8.05
2023-04-30T02:08:31.483Z,8.43
2023-04-30T02:10:58.811Z,8.35
2023-04-30T02:13:26.177Z,8.40
2023-04-30T02:15:53.534Z,8.00
2023-04-30T02:18:23.163Z,8.88
2023-04-30T02:20:50.433Z,8.68
2023-04-30T02:23:17.989Z,10.65
2023-04-30T02:25:45.436Z,10.23
2023-04-30T02:28:12.589Z,9.40
2023-04-30T02:30:40.102Z,10.43
2023-04-30T02:33:07.402Z,10.48
2023-04-30T02:35:34.912Z,9.80
2023-04-30T02:38:02.210Z,9.00
2023-04-30T02:40:29.418Z,8.45
2023-04-30T02:42:56.900Z,9.32
2023-04-30T02:45:24.423Z,9.85
2023-04-30T02:47:51.850Z,11.13
2023-04-30T02:50:19.640Z,8.98
2023-04-30T02:52:47.512Z,8.23
2023-04-30T02:55:15.086Z,9.52
2023-04-30T02:57:42.481Z,8.82
2023-04-30T03:00:10.147Z,8.35
2023-04-30T03:03:02.242Z,7.93
2023-04-30T03:05:29.718Z,8.85
2023-04-30T03:07:57.093Z,6.95
2023-04-30T03:10:24.421Z,7.13
2023-04-30T03:12:52.015Z,7.30
2023-04-30T03:15:19.367Z,7.28
2023-04-30T03:17:47.945Z,6.50
2023-04-30T03:20:15.282Z,7.28
2023-04-30T03:22:42.579Z,7.35
2023-04-30T03:25:11.665Z,7.18
2023-04-30T03:27:38.975Z,6.70
2023-04-30T03:30:07.338Z,7.35
2023-04-30T03:32:34.573Z,7.20
2023-04-30T03:35:02.125Z,6.72
2023-04-30T03:37:29.602Z,7.05
2023-04-30T03:39:57.220Z,6.88
2023-04-30T03:42:24.674Z,7.57
2023-04-30T03:44:51.869Z,6.93
2023-04-30T03:47:19.511Z,6.47
2023-04-30T03:49:49.036Z,6.55
2023-04-30T03:52:16.444Z,6.90
2023-04-30T03:54:43.820Z,6.00
2023-04-30T03:57:13.271Z,7.35
2023-04-30T03:59:41.707Z,6.20
2023-04-30T04:02:09.168Z,6.78
2023-04-30T04:04:37.361Z,6.80
2023-04-30T04:07:04.995Z,6.28
2023-04-30T04:09:32.096Z,6.88
2023-04-30T04:11:59.326Z,6.75
2023-04-30T04:14:26.473Z,5.75
2023-04-30T04:16:53.810Z,6.90
2023-04-30T04:19:21.113Z,6.65
2023-04-30T04:21:48.759Z,5.88
2023-04-30T04:24:16.467Z,6.35
2023-04-30T04:26:44.238Z,5.70
2023-04-30T04:29:12.368Z,6.20
2023-04-30T04:31:42.429Z,6.95
2023-04-30T04:34:14.028Z,7.15
2023-04-30T04:36:41.704Z,6.72
2023-04-30T04:39:09.052Z,6.80
2023-04-30T04:41:36.411Z,6.70
2023-04-30T04:44:04.744Z,6.80
2023-04-30T04:46:32.872Z,6.45
2023-04-30T04:49:00.525Z,6.30
2023-04-30T04:51:27.713Z,6.93
2023-04-30T04:53:55.448Z,6.15
2023-04-30T04:56:22.687Z,6.32
2023-04-30T04:58:49.851Z,5.18
2023-04-30T05:01:17.583Z,6.00
2023-04-30T05:03:47.654Z,5.57
2023-04-30T05:06:15.082Z,6.70
2023-04-30T05:08:42.955Z,6.53
2023-04-30T05:11:10.567Z,6.57
2023-04-30T05:13:37.888Z,6.22
2023-04-30T05:16:05.237Z,6.22
2023-04-30T05:18:35.349Z,6.78
2023-04-30T05:21:02.635Z,6.30
2023-04-30T05:23:29.760Z,6.57
2023-04-30T05:25:57.121Z,6.38
2023-04-30T05:28:24.314Z,6.25
2023-04-30T05:30:51.802Z,6.25
2023-04-30T05:33:21.592Z,6.15
2023-04-30T05:35:48.823Z,6.80
2023-04-30T05:38:15.997Z,5.93
2023-04-30T05:40:46.717Z,7.13
2023-04-30T05:43:16.810Z,5.78
2023-04-30T05:45:44.141Z,6.57
2023-04-30T05:48:11.654Z,6.65
2023-04-30T05:50:38.949Z,6.43
2023-04-30T05:53:06.153Z,5.90
2023-04-30T05:55:33.581Z,5.95
2023-04-30T05:58:03.932Z,5.38
2023-04-30T06:00:31.370Z,5.75
2023-04-30T06:02:58.863Z,6.10
2023-04-30T06:05:26.091Z,4.60
2023-04-30T06:07:53.333Z,6.07
2023-04-30T06:10:21.118Z,6.28
2023-04-30T06:12:48.295Z,5.47
2023-04-30T06:15:15.524Z,5.28
2023-04-30T06:17:42.900Z,5.55
2023-04-30T06:20:10.415Z,5.28
2023-04-30T06:22:37.652Z,4.97
2023-04-30T06:25:04.800Z,5.40
2023-04-30T06:27:32.594Z,4.07
2023-04-30T06:30:01.038Z,4.63
2023-04-30T06:32:28.624Z,5.20
2023-04-30T06:34:58.185Z,5.00
2023-04-30T06:37:25.386Z,5.13
2023-04-30T06:39:52.949Z,4.85
2023-04-30T06:42:20.624Z,4.90
2023-04-30T06:44:47.950Z,3.47
2023-04-30T06:47:15.077Z,4.85
2023-04-30T06:49:41.904Z,4.95
2023-04-30T06:52:08.783Z,4.80
2023-04-30T06:54:35.729Z,4.50
2023-04-30T06:57:03.225Z,4.40
2023-04-30T06:59:30.501Z,5.13
2023-04-30T07:01:57.827Z,4.43
2023-04-30T07:04:25.363Z,4.13
2023-04-30T07:06:52.669Z,4.22
2023-04-30T07:09:19.933Z,4.50
2023-04-30T07:11:47.305Z,4.25
2023-04-30T07:14:14.453Z,4.32
2023-04-30T07:16:41.631Z,4.30
2023-04-30T07:19:08.847Z,4.18
2023-04-30T07:21:35.995Z,4.55
2023-04-30T07:24:02.717Z,4.55
2023-04-30T07:26:29.604Z,4.40
2023-04-30T07:28:56.784Z,4.00
2023-04-30T07:31:24.725Z,4.55
2023-04-30T07:33:52.450Z,4.32
2023-04-30T07:36:19.638Z,4.53
2023-04-30T07:38:46.515Z,4.10
2023-04-30T07:41:13.929Z,4.00
2023-04-30T07:43:41.360Z,4.22
2023-04-30T07:46:08.591Z,4.50
2023-04-30T07:48:35.917Z,4.45
2023-04-30T07:51:04.821Z,4.43
2023-04-30T07:53:32.104Z,4.40
2023-04-30T07:55:59.311Z,4.40
2023-04-30T07:58:26.906Z,4.18
2023-04-30T08:00:54.045Z,4.15
2023-04-30T08:03:21.486Z,4.40
2023-04-30T08:05:48.726Z,3.75
2023-04-30T08:08:15.945Z,3.80
2023-04-30T08:10:43.197Z,4.03
2023-04-30T08:13:10.117Z,4.80
2023-04-30T08:15:42.530Z,4.30
2023-04-30T08:18:12.304Z,3.78
2023-04-30T08:20:39.847Z,4.13
2023-04-30T08:23:07.018Z,4.65
2023-04-30T08:25:34.518Z,4.35
2023-04-30T08:28:02.092Z,3.65
2023-04-30T08:30:29.398Z,4.05
2023-04-30T08:32:57.798Z,4.05
2023-04-30T08:35:25.589Z,4.13
2023-04-30T08:37:53.643Z,3.88
2023-04-30T08:40:22.093Z,3.90
2023-04-30T08:43:11.989Z,4.05
2023-04-30T08:45:39.552Z,3.90
2023-04-30T08:48:15.192Z,4.22
2023-04-30T08:50:42.618Z,3.70
2023-04-30T08:53:11.386Z,3.88
2023-04-30T08:55:40.365Z,3.50
2023-04-30T09:00:38.024Z,3.65
2023-04-30T09:03:05.785Z,3.40
2023-04-30T09:05:33.111Z,3.90
2023-04-30T09:08:03.572Z,3.47
2023-04-30T09:10:35.388Z,2.80
2023-04-30T09:13:07.581Z,2.20
2023-04-30T09:15:37.020Z,2.85
2023-04-30T09:18:21.141Z,2.90
2023-04-30T09:21:02.949Z,2.67
2023-04-30T09:26:03.342Z,3.60
2023-04-30T09:28:30.298Z,3.53
2023-04-30T09:30:58.166Z,3.50
2023-04-30T09:33:25.002Z,3.60
2023-04-30T09:35:52.229Z,4.13
2023-04-30T09:38:27.140Z,3.78
2023-04-30T09:40:54.407Z,4.25
2023-04-30T09:43:24.529Z,4.22
2023-04-30T09:45:52.208Z,3.63
2023-04-30T09:48:23.319Z,4.32
2023-04-30T09:50:51.415Z,3.90
2023-04-30T09:53:19.549Z,3.95
2023-04-30T09:55:50.988Z,3.75
2023-04-30T09:58:19.328Z,5.25
2023-04-30T10:00:48.316Z,3.95
2023-04-30T10:03:16.696Z,3.30
2023-04-30T10:05:49.094Z,3.60
2023-04-30T10:08:33.650Z,3.55
2023-04-30T10:11:07.226Z,3.15
2023-04-30T10:13:59.314Z,3.17
2023-04-30T10:17:07.764Z,3.13
2023-04-30T10:19:36.440Z,3.00
2023-04-30T10:22:03.798Z,3.33
2023-04-30T10:24:31.235Z,3.45
2023-04-30T10:26:58.854Z,3.13
2023-04-30T10:29:26.661Z,2.90
2023-04-30T10:32:02.883Z,3.22
2023-04-30T10:34:35.930Z,2.95
2023-04-30T10:37:22.430Z,3.00
2023-04-30T10:39:49.740Z,3.10
2023-04-30T10:42:16.715Z,3.47
2023-04-30T10:44:43.670Z,3.10
2023-04-30T10:47:10.999Z,3.50
2023-04-30T10:49:38.215Z,3.30
2023-04-30T10:52:05.796Z,3.05
2023-04-30T10:54:35.838Z,3.05
2023-04-30T10:57:22.712Z,3.28
2023-04-30T10:59:54.751Z,3.45
2023-04-30T11:02:21.949Z,3.70
2023-04-30T11:05:10.519Z,3.08
2023-04-30T11:07:38.946Z,3.00
2023-04-30T11:10:09.672Z,3.22
2023-04-30T11:12:41.732Z,3.22
2023-04-30T11:15:16.672Z,2.97
2023-04-30T11:17:49.186Z,3.10
2023-04-30T11:20:21.164Z,3.42
2023-04-30T11:22:48.098Z,2.70
2023-04-30T11:25:20.019Z,2.95
2023-04-30T11:27:47.274Z,3.22
2023-04-30T11:30:17.629Z,3.03
2023-04-30T11:32:47.509Z,3.35
2023-04-30T11:35:17.758Z,3.53
2023-04-30T11:37:45.457Z,3.22
2023-04-30T11:40:14.047Z,3.10
2023-04-30T11:42:45.939Z,3.03
2023-04-30T11:45:18.146Z,2.72
2023-04-30T11:47:54.072Z,2.83
2023-04-30T11:50:32.499Z,2.72
2023-04-30T11:53:05.562Z,2.90
2023-04-30T11:55:32.561Z,3.00
2023-04-30T11:58:00.428Z,2.80
2023-04-30T12:00:29.046Z,3.10
2023-04-30T12:02:57.592Z,3.00
2023-04-30T12:05:26.863Z,3.00
2023-04-30T12:08:04.484Z,3.13
2023-04-30T12:10:33.514Z,2.35
2023-04-30T12:13:00.790Z,2.50
2023-04-30T12:15:29.114Z,3.05
2023-04-30T12:18:00.051Z,2.63
2023-04-30T12:20:58.205Z,2.97
2023-04-30T12:23:25.465Z,2.50
2023-04-30T12:25:52.490Z,3.13
2023-04-30T12:28:20.118Z,3.00
2023-04-30T12:30:47.597Z,2.58
2023-04-30T12:33:15.306Z,2.67
2023-04-30T12:35:43.475Z,2.67
2023-04-30T12:38:10.957Z,2.78
2023-04-30T12:40:41.032Z,2.40
2023-04-30T12:43:15.165Z,2.88
2023-04-30T12:45:53.852Z,2.10
2023-04-30T12:48:28.729Z,2.60
2023-04-30T12:51:05.394Z,2.30
2023-04-30T12:53:32.418Z,2.08
2023-04-30T12:56:13.199Z,1.80
2023-04-30T12:58:44.696Z,2.00
2023-04-30T13:01:13.303Z,1.42
2023-04-30T13:03:41.266Z,1.60
2023-04-30T13:06:10.663Z,1.75
2023-04-30T13:11:17.655Z,1.83
2023-04-30T13:13:44.923Z,2.15
2023-04-30T13:16:14.844Z,2.22
2023-04-30T13:18:42.295Z,2.00
2023-04-30T13:21:09.782Z,1.75
2023-04-30T13:23:49.069Z,1.60
2023-04-30T13:26:19.715Z,1.20
2023-04-30T13:28:47.192Z,1.38
2023-04-30T13:31:14.532Z,1.50
2023-04-30T13:33:42.318Z,1.77
2023-04-30T13:36:09.600Z,1.85
2023-04-30T13:38:36.937Z,1.73
2023-04-30T13:41:04.446Z,1.70
2023-04-30T13:43:31.616Z,1.98
2023-04-30T13:45:58.957Z,2.08
2023-04-30T13:48:26.323Z,2.05
2023-04-30T13:50:53.889Z,2.10
2023-04-30T13:53:21.113Z,1.92
2023-04-30T13:55:48.385Z,1.90
2023-04-30T13:58:15.800Z,2.17
2023-04-30T14:00:42.853Z,2.05
2023-04-30T14:03:11.001Z,2.20
2023-04-30T14:05:38.501Z,2.25
2023-04-30T14:08:06.199Z,1.83
2023-04-30T14:10:33.580Z,1.88
2023-04-30T14:13:01.119Z,2.20
2023-04-30T14:15:30.657Z,1.90
2023-04-30T14:17:58.020Z,2.10
2023-04-30T14:20:25.705Z,2.50
2023-04-30T14:22:53.176Z,1.83
2023-04-30T14:25:20.656Z,1.90
2023-04-30T14:27:49.427Z,1.83
2023-04-30T14:30:16.605Z,2.08
2023-04-30T14:32:43.864Z,2.25
2023-04-30T14:35:11.620Z,1.75
2023-04-30T14:37:38.856Z,1.80
2023-04-30T14:40:07.901Z,2.03
2023-04-30T14:42:35.147Z,2.17
2023-04-30T14:45:02.812Z,1.85
2023-04-30T14:47:29.828Z,1.70
2023-04-30T14:49:58.755Z,2.22
2023-04-30T14:52:25.902Z,1.95
2023-04-30T14:54:53.389Z,1.60
2023-04-30T14:57:20.782Z,1.83
2023-04-30T14:59:52.862Z,2.35
2023-04-30T15:02:21.762Z,1.90
2023-04-30T15:04:49.372Z,1.90
2023-04-30T15:07:16.083Z,1.83
2023-04-30T15:09:44.756Z,2.38
2023-04-30T15:12:11.933Z,2.20
2023-04-30T15:14:39.095Z,1.83
2023-04-30T15:17:06.771Z,2.22
2023-04-30T15:19:33.949Z,2.00
2023-04-30T15:22:01.186Z,1.67
2023-04-30T15:24:28.400Z,1.65
2023-04-30T15:26:55.594Z,1.90
2023-04-30T15:29:23.678Z,1.50
2023-04-30T15:31:56.346Z,1.65
2023-04-30T15:34:23.701Z,1.80
2023-04-30T15:36:50.558Z,1.13
2023-04-30T15:39:21.046Z,1.90
2023-04-30T15:41:48.189Z,2.00
2023-04-30T15:44:15.400Z,1.73
2023-04-30T15:46:42.781Z,1.60
2023-04-30T15:49:14.394Z,2.03
2023-04-30T15:51:41.955Z,1.35
2023-04-30T15:54:11.095Z,1.70
2023-04-30T15:56:45.089Z,1.20
2023-04-30T15:59:17.573Z,1.25
2023-04-30T16:01:46.443Z,1.42
2023-04-30T16:04:13.684Z,1.23
2023-04-30T16:06:41.042Z,0.93
2023-04-30T16:09:08.839Z,1.20
2023-04-30T16:11:36.249Z,1.40
2023-04-30T16:14:03.478Z,1.40
2023-04-30T16:16:30.897Z,1.30
2023-04-30T16:18:58.141Z,1.00
2023-04-30T16:21:25.343Z,1.30
2023-04-30T16:23:52.940Z,1.10
2023-04-30T16:26:22.314Z,1.10
2023-04-30T16:28:49.793Z,1.42
2023-04-30T16:31:16.929Z,1.38
2023-04-30T16:33:44.164Z,1.58
2023-04-30T16:36:13.540Z,1.98
2023-04-30T16:38:41.834Z,1.10
2023-04-30T16:41:08.828Z,1.23
2023-04-30T16:43:38.723Z,1.95
2023-04-30T16:46:06.007Z,1.40
2023-04-30T16:48:32.873Z,1.15
2023-04-30T16:51:00.185Z,1.20
2023-04-30T16:53:27.324Z,1.00
2023-04-30T16:55:57.286Z,1.23
2023-04-30T16:58:24.540Z,1.20
2023-04-30T17:00:56.308Z,1.30
2023-04-30T17:03:24.028Z,1.20
2023-04-30T17:05:52.846Z,1.20
2023-04-30T17:08:20.117Z,1.30
2023-04-30T17:10:47.678Z,1.45
2023-04-30T17:13:15.078Z,1.20
2023-04-30T17:15:43.482Z,1.42
2023-04-30T17:18:11.694Z,1.13
2023-04-30T17:20:39.246Z,1.30
2023-04-30T17:23:06.495Z,1.42
2023-04-30T17:25:33.766Z,1.40
2023-04-30T17:28:01.539Z,1.00
2023-04-30T17:30:29.083Z,1.30
2023-04-30T17:32:56.943Z,1.42
2023-04-30T17:35:24.212Z,1.17
2023-04-30T17:37:51.512Z,1.30
2023-04-30T17:40:18.964Z,1.30
2023-04-30T17:42:46.322Z,1.40
2023-04-30T17:45:13.871Z,1.30
2023-04-30T17:47:41.098Z,1.33
2023-04-30T17:50:08.848Z,1.60
2023-04-30T17:52:38.541Z,1.63
2023-04-30T17:55:08.378Z,1.50
2023-04-30T17:57:35.885Z,1.63
2023-04-30T18:00:03.894Z,2.13
2023-04-30T18:02:40.550Z,1.45
2023-04-30T18:05:07.831Z,1.50
2023-04-30T18:07:34.584Z,1.40
2023-04-30T18:10:02.792Z,1.50
2023-04-30T18:12:30.034Z,1.60
2023-04-30T18:14:57.564Z,1.30
2023-04-30T18:17:24.442Z,1.70
2023-04-30T18:19:51.398Z,1.55
2023-04-30T18:22:19.243Z,1.20
2023-04-30T18:24:46.363Z,1.50
2023-04-30T18:27:13.915Z,1.27
2023-04-30T18:29:42.177Z,1.70
2023-04-30T18:32:09.518Z,1.63
2023-04-30T18:34:38.131Z,1.85
2023-04-30T18:37:05.882Z,1.70
2023-04-30T18:39:33.035Z,2.10
2023-04-30T18:42:00.276Z,1.63
2023-04-30T18:44:34.829Z,1.73
2023-04-30T18:47:06.576Z,1.95
2023-04-30T18:49:33.780Z,1.50
2023-04-30T18:52:04.064Z,1.83
2023-04-30T18:54:31.712Z,1.67
2023-04-30T18:56:59.128Z,2.00
2023-04-30T18:59:28.755Z,1.70
2023-04-30T19:01:56.033Z,1.90
2023-04-30T19:04:23.285Z,2.42
2023-04-30T19:06:52.315Z,2.00
2023-04-30T19:09:19.643Z,2.28
2023-04-30T19:11:47.189Z,2.22
2023-04-30T19:14:14.364Z,2.42
2023-04-30T19:16:41.747Z,2.20
2023-04-30T19:19:09.101Z,2.33
2023-04-30T19:21:36.468Z,1.77
2023-04-30T19:24:03.831Z,1.85
2023-04-30T19:26:34.200Z,1.90
2023-04-30T19:29:03.440Z,1.90
2023-04-30T19:31:30.808Z,2.42
2023-04-30T19:34:01.179Z,1.92
2023-04-30T19:36:28.597Z,1.70
2023-04-30T19:38:58.547Z,1.75
2023-04-30T19:41:28.046Z,1.60
2023-04-30T19:43:56.164Z,1.80
2023-04-30T19:46:23.493Z,1.70
2023-04-30T19:48:52.390Z,1.90
2023-04-30T19:51:19.863Z,1.92
2023-04-30T19:53:47.714Z,1.77
2023-04-30T19:56:18.142Z,1.65
2023-04-30T19:58:47.451Z,1.80
2023-04-30T20:01:15.202Z,1.77
2023-04-30T20:03:43.469Z,1.40
2023-04-30T20:06:10.939Z,2.20
2023-04-30T20:08:38.637Z,1.70
2023-04-30T20:11:05.839Z,1.73
2023-04-30T20:13:33.058Z,1.60
2023-04-30T20:16:03.220Z,1.80
2023-04-30T20:18:30.465Z,2.15
2023-04-30T20:21:01.230Z,1.70
2023-04-30T20:23:28.557Z,1.75
2023-04-30T20:25:55.785Z,1.85
2023-04-30T20:28:23.106Z,2.30
2023-04-30T20:30:50.302Z,2.80
2023-04-30T20:33:19.015Z,1.77
2023-04-30T20:35:47.318Z,2.25
2023-04-30T20:38:19.669Z,1.92
2023-04-30T20:40:50.513Z,1.77
2023-04-30T20:43:17.501Z,1.73
2023-04-30T20:45:45.281Z,1.83
2023-04-30T20:48:12.898Z,2.05
2023-04-30T20:50:57.786Z,2.25
2023-04-30T20:53:25.502Z,1.80
2023-04-30T20:55:58.585Z,2.00
2023-04-30T20:58:26.961Z,1.60
2023-04-30T21:00:54.640Z,1.70
2023-04-30T21:03:22.143Z,1.85
2023-04-30T21:05:50.611Z,1.80
2023-04-30T21:08:17.748Z,1.85
2023-04-30T21:10:48.021Z,1.77
2023-04-30T21:15:45.480Z,2.00
2023-04-30T21:18:12.817Z,2.08
2023-04-30T21:20:40.633Z,2.15
2023-04-30T21:23:07.783Z,2.20
2023-04-30T21:25:36.940Z,2.10
2023-04-30T21:28:04.089Z,1.90
2023-04-30T21:30:32.319Z,2.22
2023-04-30T21:32:59.693Z,2.22
2023-04-30T21:35:27.878Z,2.45
2023-04-30T21:37:55.474Z,2.63
2023-04-30T21:40:22.718Z,3.20
2023-04-30T21:42:50.476Z,1.90
2023-04-30T21:45:18.064Z,2.08
2023-04-30T21:47:47.398Z,2.30
2023-04-30T21:50:14.731Z,2.55
2023-04-30T21:52:42.089Z,2.20
2023-04-30T21:55:09.976Z,2.13
2023-04-30T21:57:47.962Z,2.25
2023-04-30T22:00:17.531Z,2.03
2023-04-30T22:02:51.498Z,2.10
2023-04-30T22:05:19.909Z,2.40
2023-04-30T22:07:47.570Z,2.50
2023-04-30T22:10:15.656Z,2.30
2023-04-30T22:12:48.670Z,2.30
2023-04-30T22:15:16.487Z,2.05
2023-04-30T22:17:44.094Z,3.30
2023-04-30T22:20:13.959Z,2.55
2023-04-30T22:22:41.349Z,2.50
2023-04-30T22:25:09.942Z,2.08
2023-04-30T22:27:37.911Z,2.58
2023-04-30T22:30:06.281Z,2.38
2023-04-30T22:32:35.151Z,2.78
2023-04-30T22:35:03.240Z,2.45
2023-04-30T22:37:31.423Z,2.10
2023-04-30T22:39:58.845Z,2.40
2023-04-30T22:42:26.394Z,3.15
2023-04-30T22:44:53.618Z,2.53
2023-04-30T22:47:24.306Z,2.75
2023-04-30T22:50:02.638Z,2.78
2023-04-30T22:52:31.921Z,2.53
2023-04-30T22:55:00.538Z,2.75
2023-04-30T22:57:27.979Z,2.78
2023-04-30T22:59:55.340Z,2.72
2023-04-30T23:02:23.200Z,3.03
2023-04-30T23:04:50.578Z,2.53
2023-04-30T23:07:20.349Z,2.40
2023-04-30T23:09:47.437Z,2.47
2023-04-30T23:12:14.992Z,2.55
2023-04-30T23:14:42.651Z,2.90
2023-04-30T23:17:10.050Z,2.50
2023-04-30T23:19:38.784Z,3.40
2023-04-30T23:22:06.031Z,2.47
2023-04-30T23:24:37.639Z,2.83
2023-04-30T23:27:05.115Z,3.10
2023-04-30T23:29:33.297Z,4.05
2023-04-30T23:32:02.231Z,2.67
2023-04-30T23:34:29.432Z,2.58
2023-04-30T23:36:56.760Z,2.78
2023-04-30T23:39:25.578Z,2.90
2023-04-30T23:41:52.808Z,2.70
2023-04-30T23:44:21.068Z,3.40
2023-04-30T23:46:48.464Z,2.70
2023-04-30T23:49:17.944Z,2.63
2023-04-30T23:51:45.735Z,3.17
2023-04-30T23:54:13.305Z,3.30
2023-04-30T23:56:40.511Z,3.10
2023-04-30T23:59:08.052Z,3.40
